Terminal Aerodrome Forecast
Issued by NWS Paducah, KY

Home | Current Version | Previous Version | Text Only | Print | Product List | Glossary On
Versions: 1 2 3 4 5 6 7 8 9 10 11 12 13 14 15 16 17 18 19 20 21 22 23 24 25 26 27 28 29 30 31
797
FTUS43 KPAH 282327 AAB
TAFPAH
TAF AMD
KPAH 282327Z 2823/2924 VRB04KT P6SM SCT030
     FM290400 00000KT 5SM BR SCT050 SCT100
     FM290700 00000KT 3SM BR SCT015
      TEMPO 2908/2912 1SM BR BCFG OVC002
     FM291400 32003KT P6SM SCT030=

USA.gov is the U.S. government's official web portal to all federal, state and local government web resources and services.